sensor_id;sensor_type;location;lat;lon;timestamp;temperature;humidity
40808;DHT22;26523;52.504;13.498;2023-07-29T00:00:05;17.20;99.90
40808;DHT22;26523;52.504;13.498;2023-07-29T00:02:42;17.30;99.90
40808;DHT22;26523;52.504;13.498;2023-07-29T00:05:11;17.20;99.90
40808;DHT22;26523;52.504;13.498;2023-07-29T00:07:38;17.10;99.90
40808;DHT22;26523;52.504;13.498;2023-07-29T00:10:04;17.10;99.90
40808;DHT22;26523;52.504;13.498;2023-07-29T00:12:33;17.00;99.90
40808;DHT22;26523;52.504;13.498;2023-07-29T00:15:04;17.10;99.90
40808;DHT22;26523;52.504;13.498;2023-07-29T00:17:36;17.00;99.90
40808;DHT22;26523;52.504;13.498;2023-07-29T00:20:05;17.00;99.90
40808;DHT22;26523;52.504;13.498;2023-07-29T00:22:32;16.90;99.90
40808;DHT22;26523;52.504;13.498;2023-07-29T00:24:59;16.90;99.90
40808;DHT22;26523;52.504;13.498;2023-07-29T00:27:27;16.80;99.90
40808;DHT22;26523;52.504;13.498;2023-07-29T00:30:00;16.80;99.90
40808;DHT22;26523;52.504;13.498;2023-07-29T00:32:30;16.80;99.90
40808;DHT22;26523;52.504;13.498;2023-07-29T00:35:08;16.80;99.90
40808;DHT22;26523;52.504;13.498;2023-07-29T00:37:40;16.80;99.90
40808;DHT22;26523;52.504;13.498;2023-07-29T00:40:19;16.80;99.90
40808;DHT22;26523;52.504;13.498;2023-07-29T00:42:46;16.80;99.90
40808;DHT22;26523;52.504;13.498;2023-07-29T00:45:18;16.70;99.90
40808;DHT22;26523;52.504;13.498;2023-07-29T00:47:44;16.70;99.90
40808;DHT22;26523;52.504;13.498;2023-07-29T00:50:11;16.60;99.90
40808;DHT22;26523;52.504;13.498;2023-07-29T00:52:38;16.60;99.90
40808;DHT22;26523;52.504;13.498;2023-07-29T00:55:07;16.60;99.90
40808;DHT22;26523;52.504;13.498;2023-07-29T00:57:36;16.60;99.90
40808;DHT22;26523;52.504;13.498;2023-07-29T01:00:02;16.60;99.90
40808;DHT22;26523;52.504;13.498;2023-07-29T01:02:29;16.60;99.90
40808;DHT22;26523;52.504;13.498;2023-07-29T01:04:58;16.60;99.90
40808;DHT22;26523;52.504;13.498;2023-07-29T01:07:47;16.60;99.90
40808;DHT22;26523;52.504;13.498;2023-07-29T01:10:30;16.60;99.90
40808;DHT22;26523;52.504;13.498;2023-07-29T01:13:19;16.60;99.90
40808;DHT22;26523;52.504;13.498;2023-07-29T01:15:55;16.50;99.90
40808;DHT22;26523;52.504;13.498;2023-07-29T01:18:25;16.50;99.90
40808;DHT22;26523;52.504;13.498;2023-07-29T01:20:59;16.50;99.90
40808;DHT22;26523;52.504;13.498;2023-07-29T01:23:28;16.50;99.90
40808;DHT22;26523;52.504;13.498;2023-07-29T01:25:54;16.50;99.90
40808;DHT22;26523;52.504;13.498;2023-07-29T01:28:21;16.40;99.90
40808;DHT22;26523;52.504;13.498;2023-07-29T01:31:01;16.40;99.90
40808;DHT22;26523;52.504;13.498;2023-07-29T01:33:38;16.40;99.90
40808;DHT22;26523;52.504;13.498;2023-07-29T01:36:12;16.30;99.90
40808;DHT22;26523;52.504;13.498;2023-07-29T01:38:42;16.30;99.90
40808;DHT22;26523;52.504;13.498;2023-07-29T01:41:13;16.30;99.90
40808;DHT22;26523;52.504;13.498;2023-07-29T01:43:39;16.30;99.90
40808;DHT22;26523;52.504;13.498;2023-07-29T01:46:13;16.30;99.90
40808;DHT22;26523;52.504;13.498;2023-07-29T01:48:40;16.30;99.90
40808;DHT22;26523;52.504;13.498;2023-07-29T01:51:06;16.30;99.90
40808;DHT22;26523;52.504;13.498;2023-07-29T01:53:32;16.20;99.90
40808;DHT22;26523;52.504;13.498;2023-07-29T01:55:59;16.20;99.90
40808;DHT22;26523;52.504;13.498;2023-07-29T01:58:25;16.10;99.90
40808;DHT22;26523;52.504;13.498;2023-07-29T02:00:51;16.10;99.90
40808;DHT22;26523;52.504;13.498;2023-07-29T02:03:18;16.10;99.90
40808;DHT22;26523;52.504;13.498;2023-07-29T02:05:43;16.00;99.90
40808;DHT22;26523;52.504;13.498;2023-07-29T02:08:10;16.00;99.90
40808;DHT22;26523;52.504;13.498;2023-07-29T02:10:37;16.00;99.90
40808;DHT22;26523;52.504;13.498;2023-07-29T02:13:03;16.10;99.90
40808;DHT22;26523;52.504;13.498;2023-07-29T02:15:33;16.00;99.90
40808;DHT22;26523;52.504;13.498;2023-07-29T02:18:00;15.90;99.90
40808;DHT22;26523;52.504;13.498;2023-07-29T02:20:27;15.90;99.90
40808;DHT22;26523;52.504;13.498;2023-07-29T02:22:54;15.90;99.90
40808;DHT22;26523;52.504;13.498;2023-07-29T02:25:20;15.90;99.90
40808;DHT22;26523;52.504;13.498;2023-07-29T02:27:49;15.90;99.90
40808;DHT22;26523;52.504;13.498;2023-07-29T02:30:16;15.90;99.90
40808;DHT22;26523;52.504;13.498;2023-07-29T02:32:41;15.90;99.90
40808;DHT22;26523;52.504;13.498;2023-07-29T02:35:07;15.90;99.90
40808;DHT22;26523;52.504;13.498;2023-07-29T02:37:33;15.90;99.90
40808;DHT22;26523;52.504;13.498;2023-07-29T02:39:59;15.80;99.90
40808;DHT22;26523;52.504;13.498;2023-07-29T02:42:24;15.80;99.90
40808;DHT22;26523;52.504;13.498;2023-07-29T02:44:50;15.80;99.90
40808;DHT22;26523;52.504;13.498;2023-07-29T02:47:16;15.80;99.90
40808;DHT22;26523;52.504;13.498;2023-07-29T02:49:42;15.70;99.90
40808;DHT22;26523;52.504;13.498;2023-07-29T02:52:07;15.70;99.90
40808;DHT22;26523;52.504;13.498;2023-07-29T02:54:33;15.70;99.90
40808;DHT22;26523;52.504;13.498;2023-07-29T02:56:59;15.70;99.90
40808;DHT22;26523;52.504;13.498;2023-07-29T02:59:26;15.60;99.90
40808;DHT22;26523;52.504;13.498;2023-07-29T03:01:52;15.70;99.90
40808;DHT22;26523;52.504;13.498;2023-07-29T03:04:18;15.70;99.90
40808;DHT22;26523;52.504;13.498;2023-07-29T03:06:44;15.70;99.90
40808;DHT22;26523;52.504;13.498;2023-07-29T03:09:10;15.70;99.90
40808;DHT22;26523;52.504;13.498;2023-07-29T03:11:36;15.70;99.90
40808;DHT22;26523;52.504;13.498;2023-07-29T03:14:01;15.70;99.90
40808;DHT22;26523;52.504;13.498;2023-07-29T03:16:28;15.70;99.90
40808;DHT22;26523;52.504;13.498;2023-07-29T03:18:54;15.70;99.90
40808;DHT22;26523;52.504;13.498;2023-07-29T03:21:20;15.70;99.90
40808;DHT22;26523;52.504;13.498;2023-07-29T03:23:47;15.70;99.90
40808;DHT22;26523;52.504;13.498;2023-07-29T03:26:13;15.70;99.90
40808;DHT22;26523;52.504;13.498;2023-07-29T03:28:41;15.70;99.90
40808;DHT22;26523;52.504;13.498;2023-07-29T03:31:07;15.60;99.90
40808;DHT22;26523;52.504;13.498;2023-07-29T03:33:33;15.60;99.90
40808;DHT22;26523;52.504;13.498;2023-07-29T03:36:02;15.70;99.90
40808;DHT22;26523;52.504;13.498;2023-07-29T03:38:28;15.60;99.90
40808;DHT22;26523;52.504;13.498;2023-07-29T03:40:55;15.60;99.90
40808;DHT22;26523;52.504;13.498;2023-07-29T03:43:21;15.70;99.90
40808;DHT22;26523;52.504;13.498;2023-07-29T03:45:48;15.70;99.90
40808;DHT22;26523;52.504;13.498;2023-07-29T03:48:14;15.70;99.90
40808;DHT22;26523;52.504;13.498;2023-07-29T03:50:41;15.70;99.90
40808;DHT22;26523;52.504;13.498;2023-07-29T03:53:06;15.70;99.90
40808;DHT22;26523;52.504;13.498;2023-07-29T03:55:32;15.80;99.90
40808;DHT22;26523;52.504;13.498;2023-07-29T03:58:00;15.80;99.90
40808;DHT22;26523;52.504;13.498;2023-07-29T04:00:26;15.90;99.90
40808;DHT22;26523;52.504;13.498;2023-07-29T04:02:52;15.90;99.90
40808;DHT22;26523;52.504;13.498;2023-07-29T04:05:18;15.90;99.90
40808;DHT22;26523;52.504;13.498;2023-07-29T04:07:44;15.90;99.90
40808;DHT22;26523;52.504;13.498;2023-07-29T04:10:10;16.00;99.90
40808;DHT22;26523;52.504;13.498;2023-07-29T04:12:36;16.00;99.90
40808;DHT22;26523;52.504;13.498;2023-07-29T04:15:05;16.10;99.90
40808;DHT22;26523;52.504;13.498;2023-07-29T04:17:31;16.10;99.90
40808;DHT22;26523;52.504;13.498;2023-07-29T04:19:57;16.20;99.90
40808;DHT22;26523;52.504;13.498;2023-07-29T04:22:23;16.40;99.90
40808;DHT22;26523;52.504;13.498;2023-07-29T04:24:49;16.60;99.90
40808;DHT22;26523;52.504;13.498;2023-07-29T04:27:14;16.80;99.90
40808;DHT22;26523;52.504;13.498;2023-07-29T04:29:40;16.90;99.90
40808;DHT22;26523;52.504;13.498;2023-07-29T04:32:07;17.10;99.90
40808;DHT22;26523;52.504;13.498;2023-07-29T04:34:34;17.30;99.90
40808;DHT22;26523;52.504;13.498;2023-07-29T04:36:59;17.50;99.90
40808;DHT22;26523;52.504;13.498;2023-07-29T04:39:25;17.70;99.90
40808;DHT22;26523;52.504;13.498;2023-07-29T04:41:51;17.80;99.90
40808;DHT22;26523;52.504;13.498;2023-07-29T04:44:17;18.00;99.90
40808;DHT22;26523;52.504;13.498;2023-07-29T04:46:43;18.10;99.90
40808;DHT22;26523;52.504;13.498;2023-07-29T04:49:08;18.20;99.90
40808;DHT22;26523;52.504;13.498;2023-07-29T04:51:34;18.30;99.90
40808;DHT22;26523;52.504;13.498;2023-07-29T04:54:00;18.30;99.90
40808;DHT22;26523;52.504;13.498;2023-07-29T04:56:26;18.30;99.90
40808;DHT22;26523;52.504;13.498;2023-07-29T04:58:52;18.30;99.90
40808;DHT22;26523;52.504;13.498;2023-07-29T05:01:21;18.40;99.90
40808;DHT22;26523;52.504;13.498;2023-07-29T05:03:48;18.50;99.90
40808;DHT22;26523;52.504;13.498;2023-07-29T05:06:14;18.70;99.90
40808;DHT22;26523;52.504;13.498;2023-07-29T05:08:41;18.90;99.90
40808;DHT22;26523;52.504;13.498;2023-07-29T05:11:06;19.20;99.90
40808;DHT22;26523;52.504;13.498;2023-07-29T05:13:32;19.40;99.90
40808;DHT22;26523;52.504;13.498;2023-07-29T05:15:58;19.50;99.90
40808;DHT22;26523;52.504;13.498;2023-07-29T05:18:23;19.70;99.90
40808;DHT22;26523;52.504;13.498;2023-07-29T05:20:55;19.80;99.90
40808;DHT22;26523;52.504;13.498;2023-07-29T05:23:20;19.90;99.90
40808;DHT22;26523;52.504;13.498;2023-07-29T05:25:46;19.90;99.90
40808;DHT22;26523;52.504;13.498;2023-07-29T05:28:11;19.80;99.90
40808;DHT22;26523;52.504;13.498;2023-07-29T05:30:37;19.80;99.90
40808;DHT22;26523;52.504;13.498;2023-07-29T05:33:04;19.90;99.90
40808;DHT22;26523;52.504;13.498;2023-07-29T05:35:30;20.10;99.90
40808;DHT22;26523;52.504;13.498;2023-07-29T05:37:55;20.50;99.90
40808;DHT22;26523;52.504;13.498;2023-07-29T05:40:21;20.80;99.90
40808;DHT22;26523;52.504;13.498;2023-07-29T05:42:47;20.90;99.90
40808;DHT22;26523;52.504;13.498;2023-07-29T05:45:14;21.00;99.90
40808;DHT22;26523;52.504;13.498;2023-07-29T05:47:40;20.90;99.90
40808;DHT22;26523;52.504;13.498;2023-07-29T05:50:06;20.90;99.90
40808;DHT22;26523;52.504;13.498;2023-07-29T05:52:32;20.80;99.90
40808;DHT22;26523;52.504;13.498;2023-07-29T05:54:58;21.20;99.90
40808;DHT22;26523;52.504;13.498;2023-07-29T05:57:25;22.20;99.90
40808;DHT22;26523;52.504;13.498;2023-07-29T05:59:51;23.30;99.90
40808;DHT22;26523;52.504;13.498;2023-07-29T06:02:18;25.40;99.90
40808;DHT22;26523;52.504;13.498;2023-07-29T06:04:44;26.70;99.90
40808;DHT22;26523;52.504;13.498;2023-07-29T06:07:10;27.50;99.90
40808;DHT22;26523;52.504;13.498;2023-07-29T06:09:36;27.40;99.90
40808;DHT22;26523;52.504;13.498;2023-07-29T06:12:01;28.50;99.90
40808;DHT22;26523;52.504;13.498;2023-07-29T06:14:28;29.60;99.90
40808;DHT22;26523;52.504;13.498;2023-07-29T06:16:53;30.60;99.90
40808;DHT22;26523;52.504;13.498;2023-07-29T06:19:20;31.60;99.30
40808;DHT22;26523;52.504;13.498;2023-07-29T06:21:46;32.50;97.00
40808;DHT22;26523;52.504;13.498;2023-07-29T06:24:13;33.50;95.00
40808;DHT22;26523;52.504;13.498;2023-07-29T06:26:39;33.90;93.40
40808;DHT22;26523;52.504;13.498;2023-07-29T06:29:04;33.00;93.00
40808;DHT22;26523;52.504;13.498;2023-07-29T06:31:30;33.50;93.20
40808;DHT22;26523;52.504;13.498;2023-07-29T06:33:58;33.50;93.10
40808;DHT22;26523;52.504;13.498;2023-07-29T06:36:23;34.60;91.60
40808;DHT22;26523;52.504;13.498;2023-07-29T06:38:49;35.40;90.30
40808;DHT22;26523;52.504;13.498;2023-07-29T06:41:15;36.10;87.10
40808;DHT22;26523;52.504;13.498;2023-07-29T06:43:42;35.70;88.30
40808;DHT22;26523;52.504;13.498;2023-07-29T06:46:07;36.20;85.90
40808;DHT22;26523;52.504;13.498;2023-07-29T06:48:33;36.10;84.60
40808;DHT22;26523;52.504;13.498;2023-07-29T06:50:59;35.10;85.80
40808;DHT22;26523;52.504;13.498;2023-07-29T06:53:27;34.40;88.00
40808;DHT22;26523;52.504;13.498;2023-07-29T06:55:53;34.00;87.60
40808;DHT22;26523;52.504;13.498;2023-07-29T06:58:21;33.40;88.60
40808;DHT22;26523;52.504;13.498;2023-07-29T07:00:46;33.10;90.00
40808;DHT22;26523;52.504;13.498;2023-07-29T07:03:13;33.20;90.20
40808;DHT22;26523;52.504;13.498;2023-07-29T07:05:39;32.90;90.40
40808;DHT22;26523;52.504;13.498;2023-07-29T07:08:05;32.60;90.20
40808;DHT22;26523;52.504;13.498;2023-07-29T07:10:30;31.70;91.20
40808;DHT22;26523;52.504;13.498;2023-07-29T07:12:56;31.00;92.00
40808;DHT22;26523;52.504;13.498;2023-07-29T07:15:22;30.60;92.70
40808;DHT22;26523;52.504;13.498;2023-07-29T07:17:48;30.00;93.10
40808;DHT22;26523;52.504;13.498;2023-07-29T07:20:14;29.40;94.30
40808;DHT22;26523;52.504;13.498;2023-07-29T07:22:41;29.10;95.00
40808;DHT22;26523;52.504;13.498;2023-07-29T07:25:08;29.20;94.80
40808;DHT22;26523;52.504;13.498;2023-07-29T07:27:34;29.00;95.10
40808;DHT22;26523;52.504;13.498;2023-07-29T07:30:01;29.30;95.60
40808;DHT22;26523;52.504;13.498;2023-07-29T07:32:27;29.00;95.50
40808;DHT22;26523;52.504;13.498;2023-07-29T07:34:54;28.90;96.00
40808;DHT22;26523;52.504;13.498;2023-07-29T07:37:19;28.90;95.50
40808;DHT22;26523;52.504;13.498;2023-07-29T07:39:45;29.00;95.60
40808;DHT22;26523;52.504;13.498;2023-07-29T07:42:12;29.60;95.40
40808;DHT22;26523;52.504;13.498;2023-07-29T07:44:37;29.80;94.60
40808;DHT22;26523;52.504;13.498;2023-07-29T07:47:03;29.50;95.30
40808;DHT22;26523;52.504;13.498;2023-07-29T07:49:29;29.50;95.20
40808;DHT22;26523;52.504;13.498;2023-07-29T07:51:55;29.50;95.10
40808;DHT22;26523;52.504;13.498;2023-07-29T07:54:21;29.30;95.00
40808;DHT22;26523;52.504;13.498;2023-07-29T07:56:46;30.00;94.70
40808;DHT22;26523;52.504;13.498;2023-07-29T07:59:12;31.60;93.30
40808;DHT22;26523;52.504;13.498;2023-07-29T08:01:39;33.10;91.60
40808;DHT22;26523;52.504;13.498;2023-07-29T08:04:06;34.30;90.00
40808;DHT22;26523;52.504;13.498;2023-07-29T08:06:32;35.50;87.10
40808;DHT22;26523;52.504;13.498;2023-07-29T08:08:58;35.50;85.70
40808;DHT22;26523;52.504;13.498;2023-07-29T08:11:24;34.40;86.50
40808;DHT22;26523;52.504;13.498;2023-07-29T08:13:50;32.70;89.10
40808;DHT22;26523;52.504;13.498;2023-07-29T08:16:16;31.50;90.70
40808;DHT22;26523;52.504;13.498;2023-07-29T08:18:41;30.50;92.30
40808;DHT22;26523;52.504;13.498;2023-07-29T08:21:07;29.90;93.20
40808;DHT22;26523;52.504;13.498;2023-07-29T08:23:33;29.50;93.90
40808;DHT22;26523;52.504;13.498;2023-07-29T08:26:02;29.30;94.10
40808;DHT22;26523;52.504;13.498;2023-07-29T08:28:31;28.80;94.40
40808;DHT22;26523;52.504;13.498;2023-07-29T08:30:57;28.50;94.90
40808;DHT22;26523;52.504;13.498;2023-07-29T08:33:24;28.30;95.80
40808;DHT22;26523;52.504;13.498;2023-07-29T08:35:50;28.10;95.90
40808;DHT22;26523;52.504;13.498;2023-07-29T08:38:16;28.00;95.90
40808;DHT22;26523;52.504;13.498;2023-07-29T08:43:44;28.20;96.10
40808;DHT22;26523;52.504;13.498;2023-07-29T08:46:15;28.40;95.60
40808;DHT22;26523;52.504;13.498;2023-07-29T08:48:43;28.50;95.80
40808;DHT22;26523;52.504;13.498;2023-07-29T08:51:10;28.80;95.80
40808;DHT22;26523;52.504;13.498;2023-07-29T08:53:39;28.70;95.40
40808;DHT22;26523;52.504;13.498;2023-07-29T08:56:09;28.40;95.60
40808;DHT22;26523;52.504;13.498;2023-07-29T08:58:45;28.00;95.90
40808;DHT22;26523;52.504;13.498;2023-07-29T09:01:12;27.40;96.90
40808;DHT22;26523;52.504;13.498;2023-07-29T09:03:39;27.10;97.60
40808;DHT22;26523;52.504;13.498;2023-07-29T09:06:08;27.10;97.90
40808;DHT22;26523;52.504;13.498;2023-07-29T09:08:34;27.30;97.60
40808;DHT22;26523;52.504;13.498;2023-07-29T09:11:03;27.50;97.40
40808;DHT22;26523;52.504;13.498;2023-07-29T09:13:29;27.50;97.60
40808;DHT22;26523;52.504;13.498;2023-07-29T09:15:56;27.70;97.40
40808;DHT22;26523;52.504;13.498;2023-07-29T09:18:22;27.80;97.30
40808;DHT22;26523;52.504;13.498;2023-07-29T09:20:49;28.10;97.00
40808;DHT22;26523;52.504;13.498;2023-07-29T09:23:16;28.30;96.60
40808;DHT22;26523;52.504;13.498;2023-07-29T09:25:42;28.60;96.20
40808;DHT22;26523;52.504;13.498;2023-07-29T09:28:13;28.60;96.20
40808;DHT22;26523;52.504;13.498;2023-07-29T09:30:47;28.70;96.00
40808;DHT22;26523;52.504;13.498;2023-07-29T09:33:13;28.80;96.10
40808;DHT22;26523;52.504;13.498;2023-07-29T09:35:39;28.80;95.60
40808;DHT22;26523;52.504;13.498;2023-07-29T09:38:05;28.90;95.90
40808;DHT22;26523;52.504;13.498;2023-07-29T09:40:39;28.80;95.70
40808;DHT22;26523;52.504;13.498;2023-07-29T09:43:09;28.60;96.00
40808;DHT22;26523;52.504;13.498;2023-07-29T09:45:37;28.30;96.30
40808;DHT22;26523;52.504;13.498;2023-07-29T09:48:05;28.40;96.50
40808;DHT22;26523;52.504;13.498;2023-07-29T09:50:36;28.60;96.40
40808;DHT22;26523;52.504;13.498;2023-07-29T09:53:02;28.40;96.40
40808;DHT22;26523;52.504;13.498;2023-07-29T09:55:28;28.20;97.10
40808;DHT22;26523;52.504;13.498;2023-07-29T09:57:58;27.60;97.20
40808;DHT22;26523;52.504;13.498;2023-07-29T10:00:30;27.50;97.50
40808;DHT22;26523;52.504;13.498;2023-07-29T10:02:57;27.30;98.00
40808;DHT22;26523;52.504;13.498;2023-07-29T10:05:25;27.30;98.10
40808;DHT22;26523;52.504;13.498;2023-07-29T10:07:52;27.40;98.00
40808;DHT22;26523;52.504;13.498;2023-07-29T10:10:20;27.30;98.10
40808;DHT22;26523;52.504;13.498;2023-07-29T10:12:46;27.40;98.50
40808;DHT22;26523;52.504;13.498;2023-07-29T10:15:13;27.60;98.00
40808;DHT22;26523;52.504;13.498;2023-07-29T10:17:41;27.80;98.20
40808;DHT22;26523;52.504;13.498;2023-07-29T10:20:09;28.10;98.00
40808;DHT22;26523;52.504;13.498;2023-07-29T10:22:41;28.00;97.90
40808;DHT22;26523;52.504;13.498;2023-07-29T10:25:21;27.90;97.30
40808;DHT22;26523;52.504;13.498;2023-07-29T10:27:51;27.80;97.60
40808;DHT22;26523;52.504;13.498;2023-07-29T10:30:20;27.90;97.30
40808;DHT22;26523;52.504;13.498;2023-07-29T10:32:49;27.90;97.90
40808;DHT22;26523;52.504;13.498;2023-07-29T10:35:17;27.90;97.40
40808;DHT22;26523;52.504;13.498;2023-07-29T10:37:43;28.00;97.30
40808;DHT22;26523;52.504;13.498;2023-07-29T10:40:11;28.10;97.80
40808;DHT22;26523;52.504;13.498;2023-07-29T10:42:38;28.30;97.50
40808;DHT22;26523;52.504;13.498;2023-07-29T10:45:24;28.20;96.80
40808;DHT22;26523;52.504;13.498;2023-07-29T10:47:50;27.80;97.00
40808;DHT22;26523;52.504;13.498;2023-07-29T10:50:21;27.70;97.20
40808;DHT22;26523;52.504;13.498;2023-07-29T10:52:52;27.70;97.70
40808;DHT22;26523;52.504;13.498;2023-07-29T10:55:33;27.30;97.20
40808;DHT22;26523;52.504;13.498;2023-07-29T11:00:40;27.30;97.70
40808;DHT22;26523;52.504;13.498;2023-07-29T11:03:07;27.60;97.90
40808;DHT22;26523;52.504;13.498;2023-07-29T11:05:51;27.70;97.30
40808;DHT22;26523;52.504;13.498;2023-07-29T11:08:31;27.60;95.80
40808;DHT22;26523;52.504;13.498;2023-07-29T11:11:04;27.40;96.00
40808;DHT22;26523;52.504;13.498;2023-07-29T11:13:30;27.20;96.40
40808;DHT22;26523;52.504;13.498;2023-07-29T11:15:58;26.80;96.60
40808;DHT22;26523;52.504;13.498;2023-07-29T11:18:44;26.70;96.90
40808;DHT22;26523;52.504;13.498;2023-07-29T11:21:11;26.70;97.10
40808;DHT22;26523;52.504;13.498;2023-07-29T11:23:37;26.30;97.40
40808;DHT22;26523;52.504;13.498;2023-07-29T11:26:04;26.20;98.20
40808;DHT22;26523;52.504;13.498;2023-07-29T11:28:30;25.80;98.90
40808;DHT22;26523;52.504;13.498;2023-07-29T11:30:56;24.90;99.90
40808;DHT22;26523;52.504;13.498;2023-07-29T11:33:24;23.30;99.90
40808;DHT22;26523;52.504;13.498;2023-07-29T11:35:51;22.40;99.90
40808;DHT22;26523;52.504;13.498;2023-07-29T11:38:20;21.70;99.90
40808;DHT22;26523;52.504;13.498;2023-07-29T11:41:00;20.90;99.90
40808;DHT22;26523;52.504;13.498;2023-07-29T11:43:26;20.30;99.90
40808;DHT22;26523;52.504;13.498;2023-07-29T11:45:52;20.20;99.90
40808;DHT22;26523;52.504;13.498;2023-07-29T11:48:28;20.10;99.90
40808;DHT22;26523;52.504;13.498;2023-07-29T11:50:54;20.00;99.90
40808;DHT22;26523;52.504;13.498;2023-07-29T11:53:20;20.00;99.90
40808;DHT22;26523;52.504;13.498;2023-07-29T11:55:51;19.90;99.90
40808;DHT22;26523;52.504;13.498;2023-07-29T11:58:18;19.90;99.90
40808;DHT22;26523;52.504;13.498;2023-07-29T12:00:44;20.10;99.90
40808;DHT22;26523;52.504;13.498;2023-07-29T12:03:10;20.20;99.90
40808;DHT22;26523;52.504;13.498;2023-07-29T12:05:39;20.20;99.90
40808;DHT22;26523;52.504;13.498;2023-07-29T12:08:08;20.30;99.90
40808;DHT22;26523;52.504;13.498;2023-07-29T12:10:35;20.40;99.90
40808;DHT22;26523;52.504;13.498;2023-07-29T12:13:02;20.50;99.90
40808;DHT22;26523;52.504;13.498;2023-07-29T12:15:29;20.60;99.90
40808;DHT22;26523;52.504;13.498;2023-07-29T12:17:56;20.60;99.90
40808;DHT22;26523;52.504;13.498;2023-07-29T12:20:23;20.60;99.90
40808;DHT22;26523;52.504;13.498;2023-07-29T12:22:53;20.60;99.90
40808;DHT22;26523;52.504;13.498;2023-07-29T12:25:19;20.70;99.90
40808;DHT22;26523;52.504;13.498;2023-07-29T12:27:44;20.60;99.90
40808;DHT22;26523;52.504;13.498;2023-07-29T12:30:12;20.60;99.90
40808;DHT22;26523;52.504;13.498;2023-07-29T12:32:44;20.50;99.90
40808;DHT22;26523;52.504;13.498;2023-07-29T12:35:10;20.40;99.90
40808;DHT22;26523;52.504;13.498;2023-07-29T12:37:36;20.40;99.90
40808;DHT22;26523;52.504;13.498;2023-07-29T12:40:04;20.40;99.90
40808;DHT22;26523;52.504;13.498;2023-07-29T12:42:31;20.50;99.90
40808;DHT22;26523;52.504;13.498;2023-07-29T12:45:06;20.60;99.90
40808;DHT22;26523;52.504;13.498;2023-07-29T12:47:33;20.70;99.90
40808;DHT22;26523;52.504;13.498;2023-07-29T12:49:59;20.80;99.90
40808;DHT22;26523;52.504;13.498;2023-07-29T12:52:26;21.00;99.90
40808;DHT22;26523;52.504;13.498;2023-07-29T12:54:52;21.30;99.90
40808;DHT22;26523;52.504;13.498;2023-07-29T12:57:17;21.60;99.90
40808;DHT22;26523;52.504;13.498;2023-07-29T12:59:43;21.80;99.90
40808;DHT22;26523;52.504;13.498;2023-07-29T13:02:08;22.20;99.90
40808;DHT22;26523;52.504;13.498;2023-07-29T13:04:34;22.40;99.90
40808;DHT22;26523;52.504;13.498;2023-07-29T13:07:01;22.60;99.90
40808;DHT22;26523;52.504;13.498;2023-07-29T13:09:27;22.70;99.90
40808;DHT22;26523;52.504;13.498;2023-07-29T13:11:53;22.80;99.90
40808;DHT22;26523;52.504;13.498;2023-07-29T13:14:18;22.80;99.90
40808;DHT22;26523;52.504;13.498;2023-07-29T13:16:44;22.80;99.90
40808;DHT22;26523;52.504;13.498;2023-07-29T13:19:09;22.90;99.90
40808;DHT22;26523;52.504;13.498;2023-07-29T13:21:35;23.00;99.90
40808;DHT22;26523;52.504;13.498;2023-07-29T13:24:01;23.00;99.90
40808;DHT22;26523;52.504;13.498;2023-07-29T13:26:27;23.00;99.90
40808;DHT22;26523;52.504;13.498;2023-07-29T13:28:53;22.90;99.90
40808;DHT22;26523;52.504;13.498;2023-07-29T13:31:20;22.80;99.90
40808;DHT22;26523;52.504;13.498;2023-07-29T13:33:45;22.70;99.90
40808;DHT22;26523;52.504;13.498;2023-07-29T13:36:11;22.60;99.90
40808;DHT22;26523;52.504;13.498;2023-07-29T13:38:37;22.60;99.90
40808;DHT22;26523;52.504;13.498;2023-07-29T13:41:03;22.70;99.90
40808;DHT22;26523;52.504;13.498;2023-07-29T13:43:28;22.80;99.90
40808;DHT22;26523;52.504;13.498;2023-07-29T13:45:54;23.10;99.90
40808;DHT22;26523;52.504;13.498;2023-07-29T13:48:20;23.30;99.90
40808;DHT22;26523;52.504;13.498;2023-07-29T13:50:45;23.50;99.90
40808;DHT22;26523;52.504;13.498;2023-07-29T13:53:12;23.60;99.90
40808;DHT22;26523;52.504;13.498;2023-07-29T13:55:38;23.70;99.90
40808;DHT22;26523;52.504;13.498;2023-07-29T13:58:04;23.80;99.90
40808;DHT22;26523;52.504;13.498;2023-07-29T14:00:30;23.80;99.90
40808;DHT22;26523;52.504;13.498;2023-07-29T14:02:55;23.90;99.90
40808;DHT22;26523;52.504;13.498;2023-07-29T14:05:22;24.00;99.90
40808;DHT22;26523;52.504;13.498;2023-07-29T14:07:51;24.20;99.90
40808;DHT22;26523;52.504;13.498;2023-07-29T14:10:16;24.40;99.90
40808;DHT22;26523;52.504;13.498;2023-07-29T14:12:42;24.50;99.90
40808;DHT22;26523;52.504;13.498;2023-07-29T14:15:08;24.60;99.90
40808;DHT22;26523;52.504;13.498;2023-07-29T14:17:33;24.70;99.90
40808;DHT22;26523;52.504;13.498;2023-07-29T14:19:59;24.80;99.90
40808;DHT22;26523;52.504;13.498;2023-07-29T14:22:26;24.80;99.90
40808;DHT22;26523;52.504;13.498;2023-07-29T14:24:51;24.80;99.90
40808;DHT22;26523;52.504;13.498;2023-07-29T14:27:17;24.70;99.90
40808;DHT22;26523;52.504;13.498;2023-07-29T14:29:43;24.50;99.90
40808;DHT22;26523;52.504;13.498;2023-07-29T14:32:08;24.30;99.90
40808;DHT22;26523;52.504;13.498;2023-07-29T14:34:34;24.20;99.90
40808;DHT22;26523;52.504;13.498;2023-07-29T14:37:00;24.30;99.90
40808;DHT22;26523;52.504;13.498;2023-07-29T14:39:25;24.30;99.90
40808;DHT22;26523;52.504;13.498;2023-07-29T14:41:51;24.20;99.90
40808;DHT22;26523;52.504;13.498;2023-07-29T14:44:16;24.30;99.90
40808;DHT22;26523;52.504;13.498;2023-07-29T14:46:42;24.20;99.90
40808;DHT22;26523;52.504;13.498;2023-07-29T14:49:08;24.10;99.90
40808;DHT22;26523;52.504;13.498;2023-07-29T14:51:34;24.00;99.90
40808;DHT22;26523;52.504;13.498;2023-07-29T14:54:03;23.90;99.90
40808;DHT22;26523;52.504;13.498;2023-07-29T14:56:28;23.80;99.90
40808;DHT22;26523;52.504;13.498;2023-07-29T14:58:54;23.70;99.90
40808;DHT22;26523;52.504;13.498;2023-07-29T15:01:20;23.60;99.90
40808;DHT22;26523;52.504;13.498;2023-07-29T15:03:45;23.70;99.90
40808;DHT22;26523;52.504;13.498;2023-07-29T15:06:11;23.70;99.90
40808;DHT22;26523;52.504;13.498;2023-07-29T15:08:37;23.70;99.90
40808;DHT22;26523;52.504;13.498;2023-07-29T15:11:04;23.60;99.90
40808;DHT22;26523;52.504;13.498;2023-07-29T15:13:30;23.40;99.90
40808;DHT22;26523;52.504;13.498;2023-07-29T15:15:55;23.30;99.90
40808;DHT22;26523;52.504;13.498;2023-07-29T15:18:21;23.20;99.90
40808;DHT22;26523;52.504;13.498;2023-07-29T15:20:47;23.10;99.90